Time;durP1;ratioP1;P1;durP2;ratioP2;P2;SDS_P1;SDS_P2;PMS_P1;PMS_P2;Temp;Humidity;BMP_temperature;BMP_pressure;BME280_temperature;BME280_humidity;BME280_pressure;Samples;Min_cycle;Max_cycle;Signal;HPM_P1;HPM_P2
2020/12/27 03:22:14;;;;;;;4.18;1.08;;;-3.40;91.80;;;;;;6191238;22;20037;-83
2020/12/27 03:24:42;;;;;;;2.53;1.50;;;-3.40;92.00;;;;;;6196281;23;20013;-83
2020/12/27 03:27:08;;;;;;;3.75;1.92;;;-3.40;92.00;;;;;;6212049;22;20012;-84
2020/12/27 03:29:34;;;;;;;2.15;1.23;;;-3.40;92.00;;;;;;6213428;23;20024;-83
2020/12/27 03:32:00;;;;;;;1.50;1.20;;;-3.40;92.10;;;;;;6217625;23;20004;-83
2020/12/27 03:34:28;;;;;;;2.67;1.35;;;-3.40;92.10;;;;;;6190214;23;20015;-83
2020/12/27 03:36:57;;;;;;;1.63;1.15;;;-3.40;92.00;;;;;;6191412;23;20005;-83
2020/12/27 03:39:23;;;;;;;2.13;1.35;;;-3.40;91.90;;;;;;6192315;23;20004;-83
2020/12/27 03:41:49;;;;;;;2.13;1.40;;;-3.40;91.80;;;;;;6222655;23;20095;-83
2020/12/27 03:44:14;;;;;;;3.97;1.38;;;-3.40;91.60;;;;;;6193436;23;20032;-83
2020/12/27 03:46:40;;;;;;;3.55;1.40;;;-3.40;91.50;;;;;;6194098;23;20028;-83
2020/12/27 03:49:05;;;;;;;2.25;1.30;;;-3.40;91.40;;;;;;6196870;23;20096;-83
2020/12/27 03:51:31;;;;;;;2.33;1.20;;;-3.40;91.40;;;;;;6222529;23;20003;-83
2020/12/27 03:53:57;;;;;;;2.60;1.25;;;-3.40;91.40;;;;;;6193839;23;20436;-83
2020/12/27 03:56:24;;;;;;;2.53;1.10;;;-3.40;91.40;;;;;;6196176;23;20028;-83
2020/12/27 03:58:58;;;;;;;3.70;1.38;;;-3.40;91.50;;;;;;6195878;23;20047;-84
2020/12/27 04:01:24;;;;;;;;;;;-3.40;91.40;;;;;;6172579;23;20351;-83
2020/12/27 04:03:49;;;;;;;1.27;1.08;;;-3.40;91.30;;;;;;6222736;23;19903;-83
2020/12/27 04:06:15;;;;;;;1.88;1.30;;;-3.40;91.40;;;;;;6195584;23;20003;-83
2020/12/27 04:08:41;;;;;;;1.73;0.98;;;-3.50;91.20;;;;;;6222975;23;20036;-83
2020/12/27 04:11:06;;;;;;;2.83;1.40;;;-3.50;91.40;;;;;;6196756;23;20027;-83
2020/12/27 04:13:32;;;;;;;2.45;1.45;;;-3.50;91.50;;;;;;6196253;23;20400;-83
2020/12/27 04:16:00;;;;;;;1.67;1.10;;;-3.50;91.50;;;;;;6198728;23;20337;-83
2020/12/27 04:18:26;;;;;;;2.42;1.40;;;-3.50;91.50;;;;;;6207914;23;20005;-84
2020/12/27 04:20:52;;;;;;;1.88;1.77;;;-3.50;91.60;;;;;;6225322;23;20008;-83
2020/12/27 04:23:17;;;;;;;1.95;1.08;;;-3.50;91.50;;;;;;6203550;23;20417;-83
2020/12/27 04:25:43;;;;;;;3.30;1.77;;;-3.60;91.30;;;;;;6221643;23;20031;-83
2020/12/27 04:28:09;;;;;;;1.70;0.93;;;-3.60;91.60;;;;;;6222128;23;20023;-83
2020/12/27 04:30:34;;;;;;;3.00;0.98;;;-3.60;91.70;;;;;;6222510;23;20001;-84
2020/12/27 04:33:00;;;;;;;2.05;1.02;;;-3.60;91.90;;;;;;6221450;23;20040;-84
2020/12/27 04:35:25;;;;;;;2.13;1.55;;;-3.60;91.90;;;;;;6220825;23;20027;-84
2020/12/27 04:37:51;;;;;;;1.48;1.25;;;-3.60;91.80;;;;;;6224082;23;20005;-84
2020/12/27 04:40:26;;;;;;;1.60;1.15;;;-3.50;91.70;;;;;;6223609;23;20001;-84
2020/12/27 04:42:52;;;;;;;1.27;1.17;;;-3.60;91.60;;;;;;6220824;23;20000;-84
2020/12/27 04:45:19;;;;;;;3.75;1.63;;;-3.60;91.60;;;;;;6222369;23;20143;-84
2020/12/27 04:47:47;;;;;;;1.67;0.80;;;-3.60;91.90;;;;;;6219434;23;20000;-84
2020/12/27 04:50:21;;;;;;;3.17;1.20;;;-3.60;92.00;;;;;;6226897;22;20027;-84
2020/12/27 04:52:46;;;;;;;2.50;1.10;;;-3.60;91.80;;;;;;6240622;22;20005;-84
2020/12/27 04:55:13;;;;;;;2.55;1.27;;;-3.60;91.60;;;;;;6225797;23;20008;-84
2020/12/27 04:57:42;;;;;;;1.10;1.00;;;-3.60;91.40;;;;;;6221493;23;20033;-84
2020/12/27 05:00:08;;;;;;;2.10;1.33;;;-3.60;91.30;;;;;;6229398;23;20016;-84
2020/12/27 05:02:33;;;;;;;1.13;1.00;;;-3.60;91.40;;;;;;6232280;23;20016;-85
2020/12/27 05:05:01;;;;;;;3.40;1.10;;;-3.60;91.80;;;;;;6224291;23;20090;-85
2020/12/27 05:07:27;;;;;;;2.03;1.25;;;-3.60;91.40;;;;;;6223293;23;20011;-85
2020/12/27 05:09:52;;;;;;;1.92;1.27;;;-3.60;91.50;;;;;;6224143;23;20001;-85
2020/12/27 05:12:19;;;;;;;1.35;1.00;;;-3.60;91.50;;;;;;6229635;23;20004;-84
2020/12/27 05:14:46;;;;;;;1.70;1.42;;;-3.60;91.60;;;;;;6230063;23;20008;-84
2020/12/27 05:17:14;;;;;;;1.88;1.23;;;-3.60;91.50;;;;;;6226543;23;20000;-85
2020/12/27 05:19:41;;;;;;;3.08;1.23;;;-3.60;91.50;;;;;;6222224;23;19997;-84
2020/12/27 05:22:11;;;;;;;2.63;1.15;;;-3.60;91.60;;;;;;6222511;23;20079;-85
2020/12/27 05:24:38;;;;;;;1.83;1.00;;;-3.60;91.70;;;;;;6220975;23;20019;-85
2020/12/27 05:27:06;;;;;;;2.78;1.30;;;-3.60;91.70;;;;;;6221330;23;20016;-84
2020/12/27 05:29:35;;;;;;;2.78;1.15;;;-3.70;91.50;;;;;;6222076;23;20462;-84
2020/12/27 05:32:03;;;;;;;2.08;1.25;;;-3.70;91.70;;;;;;6221844;23;20064;-84
2020/12/27 05:34:40;;;;;;;2.97;1.45;;;-3.80;91.60;;;;;;6219861;23;20004;-84
2020/12/27 05:37:06;;;;;;;2.25;0.73;;;-3.80;91.40;;;;;;6218472;23;20039;-84
2020/12/27 05:39:32;;;;;;;1.30;1.00;;;-3.80;91.50;;;;;;6224598;23;20020;-83
2020/12/27 05:42:04;;;;;;;1.67;1.00;;;-3.90;91.50;;;;;;6222303;23;20028;-84
2020/12/27 05:44:39;;;;;;;1.98;1.33;;;-3.90;91.70;;;;;;6223823;23;20443;-84
2020/12/27 05:47:06;;;;;;;4.07;1.48;;;-3.90;91.80;;;;;;6221410;23;20000;-84
2020/12/27 05:49:32;;;;;;;2.63;1.25;;;-3.90;92.10;;;;;;6224124;23;19997;-85
2020/12/27 05:52:12;;;;;;;2.35;1.23;;;-3.90;92.60;;;;;;6222895;23;20003;-84
2020/12/27 05:54:47;;;;;;;2.10;1.05;;;-3.90;92.10;;;;;;6221870;23;20004;-84
2020/12/27 05:57:15;;;;;;;1.83;0.98;;;-3.90;91.90;;;;;;6222912;23;20412;-83
2020/12/27 05:59:47;;;;;;;2.20;1.00;;;-3.90;92.00;;;;;;6221842;23;20031;-84
2020/12/27 06:02:26;;;;;;;2.22;1.40;;;-3.90;92.20;;;;;;6221910;23;20143;-83
2020/12/27 06:05:12;;;;;;;1.88;1.05;;;-3.90;92.20;;;;;;6223609;23;20076;-82
2020/12/27 06:07:45;;;;;;;2.30;2.03;;;-3.90;92.40;;;;;;6221422;23;20012;-83
2020/12/27 06:10:20;;;;;;;1.75;1.30;;;-3.90;92.40;;;;;;6223302;23;20051;-83
2020/12/27 06:13:47;;;;;;;2.42;1.42;;;-3.90;92.20;;;;;;6220538;23;20004;-85
2020/12/27 06:16:16;;;;;;;1.42;1.00;;;-3.90;92.20;;;;;;6222044;23;20011;-83
2020/12/27 06:19:00;;;;;;;2.30;1.27;;;-3.90;92.20;;;;;;6220676;23;20084;-83
2020/12/27 06:21:30;;;;;;;2.65;1.42;;;-4.00;92.00;;;;;;6219883;23;20020;-83
2020/12/27 06:23:59;;;;;;;2.15;1.25;;;-4.00;92.10;;;;;;6229900;22;20028;-84
2020/12/27 06:26:27;;;;;;;2.72;1.48;;;-4.00;92.10;;;;;;6241067;22;19992;-84
2020/12/27 06:28:53;;;;;;;1.95;1.30;;;-4.10;92.10;;;;;;6204587;23;20005;-82
2020/12/27 06:31:22;;;;;;;2.13;1.17;;;-4.10;92.20;;;;;;6219215;23;20008;-82
2020/12/27 06:33:48;;;;;;;1.38;1.08;;;-4.10;92.30;;;;;;6219025;23;20009;-83
2020/12/27 06:36:31;;;;;;;2.28;1.50;;;-4.10;92.50;;;;;;6191583;23;20055;-82
2020/12/27 06:38:56;;;;;;;;;;;-4.10;92.90;;;;;;6221078;23;20007;-83
2020/12/27 06:41:22;;;;;;;1.85;1.02;;;-4.10;92.30;;;;;;6219828;23;19900;-83
2020/12/27 06:43:48;;;;;;;1.98;1.20;;;-4.10;92.50;;;;;;6192042;23;20429;-84
2020/12/27 06:46:26;;;;;;;2.45;1.20;;;-4.10;92.60;;;;;;6168614;23;20095;-83
2020/12/27 06:49:12;;;;;;;2.15;1.45;;;-4.00;92.60;;;;;;6193434;23;20032;-83
2020/12/27 06:51:39;;;;;;;1.60;1.00;;;-4.10;92.50;;;;;;6194601;23;20004;-83
2020/12/27 06:54:05;;;;;;;1.40;1.10;;;-4.00;92.50;;;;;;6220894;23;20004;-83
2020/12/27 06:56:46;;;;;;;1.77;1.27;;;-4.00;92.40;;;;;;6193957;23;20031;-83
2020/12/27 06:59:12;;;;;;;1.83;1.63;;;-3.90;92.30;;;;;;6179667;23;20019;-84
2020/12/27 07:01:38;;;;;;;2.15;1.17;;;-4.00;92.10;;;;;;6199074;23;20008;-80
2020/12/27 07:04:15;;;;;;;1.80;1.20;;;-3.90;92.00;;;;;;6198978;23;20024;-79
2020/12/27 07:06:50;;;;;;;4.07;1.33;;;-3.90;92.10;;;;;;6197598;23;20012;-80
2020/12/27 07:09:22;;;;;;;1.30;1.02;;;-3.90;91.90;;;;;;6219927;23;20000;-79
2020/12/27 07:12:11;;;;;;;3.80;1.85;;;-3.90;91.70;;;;;;6194321;23;20443;-79
2020/12/27 07:14:43;;;;;;;9.00;2.10;;;-3.90;91.60;;;;;;6192968;23;20325;-79
2020/12/27 07:17:10;;;;;;;2.75;2.03;;;-3.90;91.60;;;;;;6190580;23;20088;-80
2020/12/27 07:19:38;;;;;;;3.40;1.85;;;-3.90;91.40;;;;;;6217073;23;20527;-78
2020/12/27 07:22:05;;;;;;;2.80;1.77;;;-3.90;91.40;;;;;;6216838;23;20072;-80
2020/12/27 07:24:35;;;;;;;3.60;1.83;;;-3.90;91.50;;;;;;6214508;23;20020;-79
2020/12/27 07:27:03;;;;;;;4.68;1.95;;;-3.90;91.60;;;;;;6215592;23;20019;-77
2020/12/27 07:29:30;;;;;;;3.05;1.45;;;-3.80;91.50;;;;;;6220993;23;20001;-76
2020/12/27 07:31:58;;;;;;;2.47;1.65;;;-3.80;91.40;;;;;;6218490;23;20436;-79
2020/12/27 07:34:26;;;;;;;1.50;0.98;;;-3.70;91.50;;;;;;6218732;23;20104;-82
2020/12/27 07:37:02;;;;;;;1.27;1.02;;;-3.60;91.50;;;;;;6216106;23;20483;-79
2020/12/27 07:39:58;;;;;;;2.95;1.52;;;-3.60;91.40;;;;;;6216173;23;20348;-79
2020/12/27 07:42:35;;;;;;;5.95;1.73;;;-3.50;91.10;;;;;;6216916;23;20004;-79
2020/12/27 07:45:03;;;;;;;1.15;0.95;;;-3.40;91.00;;;;;;6220406;23;20009;-78
2020/12/27 07:47:35;;;;;;;1.33;0.93;;;-3.30;91.00;;;;;;6223356;23;19997;-79
2020/12/27 07:50:22;;;;;;;1.88;1.00;;;-3.30;90.90;;;;;;6220901;23;20485;-79
2020/12/27 07:52:52;;;;;;;2.72;1.10;;;-3.20;90.70;;;;;;6216724;23;20043;-78
2020/12/27 07:55:29;;;;;;;1.10;1.00;;;-3.10;90.60;;;;;;6215400;23;20012;-78
2020/12/27 07:57:56;;;;;;;2.30;1.05;;;-3.10;90.50;;;;;;6215343;23;20075;-78
2020/12/27 08:00:26;;;;;;;1.23;0.95;;;-3.00;90.40;;;;;;6213364;23;20008;-78
2020/12/27 08:02:52;;;;;;;2.72;1.02;;;-2.90;90.40;;;;;;6214168;23;20009;-79
2020/12/27 08:05:18;;;;;;;2.03;1.15;;;-2.90;90.10;;;;;;6213462;23;20288;-79
2020/12/27 08:07:44;;;;;;;3.85;1.33;;;-2.70;90.00;;;;;;6214309;23;20005;-79
2020/12/27 08:10:25;;;;;;;3.38;1.42;;;-2.70;89.40;;;;;;6214038;23;20011;-79
2020/12/27 08:12:56;;;;;;;2.40;1.25;;;-2.60;88.90;;;;;;6215072;23;20001;-80
2020/12/27 08:15:23;;;;;;;2.22;1.70;;;-2.50;87.80;;;;;;6216082;23;20143;-80
2020/12/27 08:17:53;;;;;;;3.50;1.40;;;-2.50;86.20;;;;;;6216801;23;20009;-79
2020/12/27 08:20:18;;;;;;;1.40;1.17;;;-2.40;86.30;;;;;;6217222;23;20739;-79
2020/12/27 08:22:44;;;;;;;1.30;1.20;;;-2.30;86.60;;;;;;6215360;23;20013;-79
2020/12/27 08:25:13;;;;;;;3.10;1.52;;;-2.30;86.20;;;;;;6215783;23;20009;-79
2020/12/27 08:27:39;;;;;;;2.25;1.38;;;-2.20;85.50;;;;;;6216646;23;20067;-80
2020/12/27 08:30:05;;;;;;;1.45;1.35;;;-2.20;85.00;;;;;;6214788;23;20004;-79
2020/12/27 08:32:31;;;;;;;1.10;1.00;;;-2.20;84.30;;;;;;6213827;23;20035;-79
2020/12/27 08:34:56;;;;;;;3.53;0.90;;;-2.20;84.50;;;;;;6215510;23;20457;-79
2020/12/27 08:37:24;;;;;;;2.40;1.35;;;-2.20;83.60;;;;;;6213867;23;20009;-80
2020/12/27 08:39:55;;;;;;;2.80;1.17;;;-2.20;83.30;;;;;;6213811;23;20025;-80
2020/12/27 08:42:36;;;;;;;4.78;1.50;;;-2.10;83.00;;;;;;6213661;23;20088;-79
2020/12/27 08:45:13;;;;;;;6.95;1.17;;;-2.00;82.40;;;;;;6217213;23;20009;-80
2020/12/27 08:47:44;;;;;;;1.70;1.08;;;-1.90;82.00;;;;;;6216154;23;19997;-80
2020/12/27 08:50:40;;;;;;;2.13;1.20;;;-1.80;81.70;;;;;;6215931;23;20075;-79
2020/12/27 08:53:09;;;;;;;2.05;1.20;;;-1.80;80.10;;;;;;6214588;23;20291;-78
2020/12/27 08:55:35;;;;;;;2.17;1.10;;;-1.80;79.60;;;;;;6213919;23;20009;-80
2020/12/27 08:58:01;;;;;;;1.92;1.20;;;-1.80;79.80;;;;;;6215014;23;20103;-81
2020/12/27 09:00:36;;;;;;;2.00;1.38;;;-1.80;79.60;;;;;;6214641;23;20009;-79
2020/12/27 09:03:04;;;;;;;8.18;1.40;;;-1.80;79.20;;;;;;6216247;23;20007;-80
2020/12/27 09:05:34;;;;;;;2.55;1.50;;;-1.70;79.70;;;;;;6215425;23;20051;-80
2020/12/27 09:08:01;;;;;;;1.75;1.25;;;-1.70;79.00;;;;;;6217857;23;20393;-80
2020/12/27 09:10:30;;;;;;;1.55;1.20;;;-1.60;78.60;;;;;;6215266;23;20001;-80
2020/12/27 09:13:07;;;;;;;1.95;1.23;;;-1.50;79.10;;;;;;6218086;23;20079;-79
2020/12/27 09:15:37;;;;;;;3.22;1.40;;;-1.40;78.80;;;;;;6223668;23;20004;-79
2020/12/27 09:18:07;;;;;;;5.25;1.38;;;-1.30;78.30;;;;;;6232709;23;20009;-80
2020/12/27 09:20:35;;;;;;;1.42;1.10;;;-1.30;77.90;;;;;;6223918;23;20036;-80
2020/12/27 09:23:11;;;;;;;1.83;1.13;;;-1.20;77.10;;;;;;6218606;23;20008;-80
2020/12/27 09:25:36;;;;;;;2.85;1.27;;;-1.20;77.20;;;;;;6218103;23;20050;-79
2020/12/27 09:28:14;;;;;;;2.72;1.63;;;-1.10;77.40;;;;;;6191620;23;20024;-79
2020/12/27 09:30:41;;;;;;;3.53;1.60;;;-1.00;76.90;;;;;;6217755;23;19996;-80
2020/12/27 09:33:07;;;;;;;1.90;1.40;;;-0.90;77.30;;;;;;6190359;23;20005;-79
2020/12/27 09:35:33;;;;;;;2.88;1.70;;;-0.90;76.90;;;;;;6217817;23;20023;-79
2020/12/27 09:37:58;;;;;;;2.08;1.38;;;-0.80;76.40;;;;;;6217489;23;20439;-80
2020/12/27 09:40:24;;;;;;;3.60;1.33;;;-0.70;76.00;;;;;;6190558;23;20005;-79
2020/12/27 09:43:01;;;;;;;5.13;1.35;;;-0.70;74.80;;;;;;6216926;23;20001;-79
2020/12/27 09:45:27;;;;;;;4.40;2.00;;;-0.70;74.60;;;;;;6217081;23;20071;-79
2020/12/27 09:48:00;;;;;;;4.03;1.55;;;-0.70;75.00;;;;;;6217690;23;20000;-79
2020/12/27 09:50:38;;;;;;;5.22;1.92;;;-0.60;75.10;;;;;;6190240;23;20301;-80
2020/12/27 09:53:04;;;;;;;6.68;2.70;;;-0.50;74.70;;;;;;6189990;23;20094;-79
2020/12/27 09:55:31;;;;;;;6.57;4.07;;;-0.40;74.40;;;;;;6190691;23;20008;-80
2020/12/27 09:57:57;;;;;;;5.82;3.13;;;-0.40;73.80;;;;;;6190519;23;20020;-80
2020/12/27 10:00:23;;;;;;;2.90;1.73;;;-0.30;74.00;;;;;;6217680;23;20001;-80
2020/12/27 10:02:49;;;;;;;2.67;1.60;;;-0.20;74.00;;;;;;6190747;23;20091;-80
2020/12/27 10:05:15;;;;;;;5.05;1.40;;;-0.10;73.70;;;;;;6191623;23;20001;-80
2020/12/27 10:07:42;;;;;;;1.40;1.10;;;-0.10;73.00;;;;;;6217813;23;20023;-80
2020/12/27 10:10:10;;;;;;;3.95;1.58;;;-0.10;73.60;;;;;;6219588;23;19996;-79
2020/12/27 10:12:36;;;;;;;4.13;1.80;;;0.00;73.70;;;;;;6217572;23;20131;-79
2020/12/27 10:15:05;;;;;;;3.47;1.98;;;0.00;73.70;;;;;;6216341;23;20067;-80
2020/12/27 10:17:31;;;;;;;2.25;1.40;;;0.20;73.50;;;;;;6217546;23;19997;-80
2020/12/27 10:19:58;;;;;;;1.98;1.50;;;0.30;73.50;;;;;;6221390;23;19997;-79
2020/12/27 10:22:28;;;;;;;2.50;1.40;;;0.30;72.50;;;;;;6227059;23;20469;-80
2020/12/27 10:24:54;;;;;;;3.88;1.67;;;0.40;72.40;;;;;;6199530;23;20488;-80
2020/12/27 10:27:20;;;;;;;1.83;1.08;;;0.40;71.80;;;;;;6219510;23;20007;-80
2020/12/27 10:29:46;;;;;;;3.22;1.13;;;0.50;72.60;;;;;;6217749;23;19997;-80
2020/12/27 10:32:11;;;;;;;2.97;1.50;;;0.70;71.80;;;;;;6217570;23;20004;-80
2020/12/27 10:34:38;;;;;;;4.00;1.17;;;0.70;71.20;;;;;;6189973;23;20008;-79
2020/12/27 10:37:04;;;;;;;1.17;0.82;;;0.90;71.30;;;;;;6216951;23;20001;-79
2020/12/27 10:39:31;;;;;;;1.58;1.08;;;0.90;70.50;;;;;;6189447;23;20016;-80
2020/12/27 10:41:57;;;;;;;2.03;1.33;;;1.00;69.40;;;;;;6217841;23;20001;-80
2020/12/27 10:44:24;;;;;;;2.97;1.30;;;1.00;68.30;;;;;;6190289;23;20035;-80
2020/12/27 10:46:50;;;;;;;2.50;1.40;;;1.00;68.70;;;;;;6189430;23;20015;-80
2020/12/27 10:49:18;;;;;;;3.55;1.35;;;1.10;68.60;;;;;;6218600;23;20100;-80
2020/12/27 10:51:43;;;;;;;5.32;1.60;;;1.20;69.30;;;;;;6221938;23;20039;-80
2020/12/27 10:54:11;;;;;;;3.65;1.17;;;1.30;69.10;;;;;;6195231;23;20369;-79
2020/12/27 10:56:37;;;;;;;2.00;1.25;;;1.40;68.10;;;;;;6193292;23;20063;-78
2020/12/27 10:59:03;;;;;;;4.32;1.40;;;1.30;66.30;;;;;;6190126;23;20504;-79
2020/12/27 11:01:28;;;;;;;2.67;1.35;;;1.30;67.20;;;;;;6191474;23;20008;-79
2020/12/27 11:03:54;;;;;;;3.35;1.63;;;1.30;67.20;;;;;;6189469;23;20088;-79
2020/12/27 11:06:33;;;;;;;2.17;1.40;;;1.30;67.20;;;;;;6216745;23;20000;-79
2020/12/27 11:08:59;;;;;;;4.70;1.80;;;1.40;67.50;;;;;;6216113;23;20027;-79
2020/12/27 11:11:25;;;;;;;9.02;1.85;;;1.50;66.90;;;;;;6215876;23;19997;-79
2020/12/27 11:13:51;;;;;;;3.17;2.00;;;1.60;66.60;;;;;;6190419;23;20001;-79
2020/12/27 11:16:17;;;;;;;4.22;1.58;;;1.50;65.90;;;;;;6190684;23;20032;-80
2020/12/27 11:18:43;;;;;;;2.72;1.50;;;1.40;66.30;;;;;;6220876;23;20016;-80
2020/12/27 11:21:09;;;;;;;3.05;1.58;;;1.30;66.20;;;;;;6189974;23;20206;-81
2020/12/27 11:23:34;;;;;;;2.92;1.60;;;1.30;67.50;;;;;;6215644;23;20039;-80
2020/12/27 11:26:00;;;;;;;2.08;1.25;;;1.40;66.90;;;;;;6189821;23;20522;-79
2020/12/27 11:28:26;;;;;;;4.40;1.48;;;1.40;67.20;;;;;;6218748;23;20016;-78
2020/12/27 11:30:52;;;;;;;3.25;1.52;;;1.50;67.10;;;;;;6189258;23;19996;-79
2020/12/27 11:33:17;;;;;;;2.72;1.23;;;1.60;66.40;;;;;;6188704;23;20035;-79
2020/12/27 11:35:43;;;;;;;3.63;1.25;;;1.70;66.40;;;;;;6188514;23;20088;-79
2020/12/27 11:38:09;;;;;;;1.52;1.40;;;1.70;66.00;;;;;;6215212;23;20015;-79
2020/12/27 11:40:34;;;;;;;2.00;1.20;;;1.60;65.80;;;;;;6188972;23;20016;-79
2020/12/27 11:43:00;;;;;;;2.33;1.30;;;1.70;66.10;;;;;;6215476;23;20019;-79
2020/12/27 11:45:26;;;;;;;1.98;1.00;;;1.70;66.10;;;;;;6215260;23;20031;-79
2020/12/27 11:47:51;;;;;;;2.10;1.00;;;1.80;66.50;;;;;;6215513;23;20024;-79
2020/12/27 11:50:17;;;;;;;1.85;1.15;;;1.90;66.30;;;;;;6189772;23;20001;-80
2020/12/27 11:52:43;;;;;;;2.55;1.25;;;1.90;66.10;;;;;;6215565;23;19997;-81
2020/12/27 11:55:09;;;;;;;2.35;1.42;;;1.80;66.00;;;;;;6217456;23;20005;-78
2020/12/27 11:57:34;;;;;;;1.35;1.15;;;1.70;65.60;;;;;;6188858;23;20008;-81
2020/12/27 12:00:03;;;;;;;4.95;1.50;;;1.60;66.40;;;;;;6220266;23;20361;-81
2020/12/27 12:02:29;;;;;;;2.35;1.15;;;1.60;66.60;;;;;;6219872;23;20255;-81
2020/12/27 12:04:54;;;;;;;2.35;1.00;;;1.70;66.40;;;;;;6217372;23;20057;-80
2020/12/27 12:07:20;;;;;;;1.75;0.95;;;1.80;66.50;;;;;;6193295;23;20083;-79
2020/12/27 12:09:46;;;;;;;5.10;1.98;;;2.00;66.40;;;;;;6189569;23;19997;-79
2020/12/27 12:12:13;;;;;;;2.15;1.20;;;2.00;65.20;;;;;;6215962;23;20028;-79
2020/12/27 12:14:39;;;;;;;3.15;1.40;;;2.10;65.00;;;;;;6216504;23;20000;-80
2020/12/27 12:17:04;;;;;;;2.97;1.20;;;2.20;65.00;;;;;;6189261;23;20011;-80
2020/12/27 12:19:30;;;;;;;5.47;1.92;;;2.30;64.60;;;;;;6215290;23;20103;-80
2020/12/27 12:21:55;;;;;;;5.50;1.75;;;2.40;64.10;;;;;;6188944;23;20012;-79
2020/12/27 12:24:24;;;;;;;3.65;1.13;;;2.40;63.60;;;;;;6211172;23;20027;-80
2020/12/27 12:26:50;;;;;;;5.07;1.40;;;2.50;64.20;;;;;;6214965;23;20011;-80
2020/12/27 12:29:16;;;;;;;4.57;2.28;;;2.70;63.90;;;;;;6213144;23;20373;-80
2020/12/27 12:31:43;;;;;;;1.98;1.17;;;2.50;62.00;;;;;;6214672;23;20417;-80
2020/12/27 12:34:09;;;;;;;2.53;1.38;;;2.40;63.20;;;;;;6215705;23;20023;-80
2020/12/27 12:36:35;;;;;;;2.67;1.60;;;2.30;63.30;;;;;;6214936;23;20007;-80
2020/12/27 12:39:01;;;;;;;1.95;1.30;;;2.40;63.60;;;;;;6213268;23;20008;-80
2020/12/27 12:41:30;;;;;;;2.97;1.20;;;;;;;;;;6213458;23;20337;-80
2020/12/27 12:43:57;;;;;;;8.90;1.77;;;2.90;91.00;;;;;;6216350;23;20001;-80
2020/12/27 12:46:23;;;;;;;2.03;1.30;;;2.90;62.10;;;;;;6225745;23;20064;-81
2020/12/27 12:48:49;;;;;;;2.75;1.40;;;2.90;62.30;;;;;;6233610;23;20054;-80
2020/12/27 12:51:15;;;;;;;3.40;1.27;;;3.00;62.60;;;;;;6238441;22;20043;-79
2020/12/27 12:53:41;;;;;;;2.50;1.83;;;3.10;62.50;;;;;;6226091;23;20492;-80
2020/12/27 12:56:13;;;;;;;4.68;1.55;;;3.00;62.10;;;;;;6217129;23;20083;-79
2020/12/27 12:58:39;;;;;;;6.47;1.42;;;2.90;62.50;;;;;;6217704;23;20004;-80
2020/12/27 13:01:07;;;;;;;8.55;3.10;;;2.80;62.60;;;;;;6216049;23;20008;-80
2020/12/27 13:03:33;;;;;;;3.63;2.45;;;2.60;64.00;;;;;;6215779;23;20009;-80
2020/12/27 13:05:59;;;;;;;3.63;1.90;;;2.60;64.40;;;;;;6218564;23;20027;-80
2020/12/27 13:08:24;;;;;;;2.40;1.45;;;2.60;64.40;;;;;;6217181;23;20104;-80
2020/12/27 13:10:50;;;;;;;2.40;1.13;;;2.50;64.10;;;;;;6215590;23;20413;-80
2020/12/27 13:13:16;;;;;;;11.82;2.10;;;2.50;64.40;;;;;;6216721;23;20358;-81
2020/12/27 13:15:43;;;;;;;2.28;1.33;;;2.40;64.00;;;;;;6217039;23;20387;-81
2020/12/27 13:18:08;;;;;;;4.25;1.58;;;2.30;64.50;;;;;;6217115;23;20380;-82
2020/12/27 13:20:34;;;;;;;3.67;1.77;;;2.30;65.30;;;;;;6219111;23;20005;-81
2020/12/27 13:23:00;;;;;;;3.80;1.83;;;2.30;65.30;;;;;;6225283;23;20088;-81
2020/12/27 13:25:25;;;;;;;5.90;2.33;;;2.30;65.50;;;;;;6220723;23;20004;-81
2020/12/27 13:27:51;;;;;;;5.47;1.67;;;2.30;66.20;;;;;;6227037;23;19996;-79
2020/12/27 13:30:17;;;;;;;2.40;1.40;;;2.20;66.40;;;;;;6231235;23;20158;-81
2020/12/27 13:32:43;;;;;;;4.20;1.77;;;2.20;66.70;;;;;;6193918;23;20072;-81
2020/12/27 13:35:10;;;;;;;4.55;2.03;;;2.20;67.60;;;;;;6220223;23;20032;-80
2020/12/27 13:37:36;;;;;;;3.95;1.30;;;2.10;67.90;;;;;;6219515;23;19993;-81
2020/12/27 13:40:04;;;;;;;2.38;1.40;;;2.10;68.60;;;;;;6220275;23;20000;-82
2020/12/27 13:42:29;;;;;;;2.85;1.10;;;2.00;68.10;;;;;;6192079;23;20009;-80
2020/12/27 13:44:55;;;;;;;1.38;1.00;;;2.00;67.60;;;;;;6193327;23;20305;-82
2020/12/27 13:47:21;;;;;;;2.33;1.50;;;1.80;66.70;;;;;;6220694;23;20000;-81
2020/12/27 13:49:46;;;;;;;1.05;0.90;;;1.80;66.70;;;;;;6193200;23;20009;-82
2020/12/27 13:52:12;;;;;;;2.33;1.70;;;1.80;66.90;;;;;;6219473;23;20213;-81
2020/12/27 13:54:37;;;;;;;1.98;1.40;;;1.90;67.10;;;;;;6193345;23;20452;-81
2020/12/27 13:57:03;;;;;;;1.60;1.40;;;1.80;67.40;;;;;;6219259;23;20075;-81
2020/12/27 13:59:29;;;;;;;7.38;1.52;;;1.80;67.50;;;;;;6192814;23;20104;-81
2020/12/27 14:01:55;;;;;;;4.07;1.95;;;1.80;68.10;;;;;;6193643;23;20043;-80
2020/12/27 14:04:21;;;;;;;3.30;1.95;;;1.70;68.40;;;;;;6192658;23;20016;-81
2020/12/27 14:06:47;;;;;;;4.18;1.75;;;1.60;69.10;;;;;;6219379;23;19997;-81
2020/12/27 14:09:12;;;;;;;2.88;1.77;;;1.50;70.00;;;;;;6219929;23;20007;-81
2020/12/27 14:11:41;;;;;;;5.18;1.90;;;;;;;;;;6219779;23;20004;-81
2020/12/27 14:14:07;;;;;;;4.22;2.10;;;1.00;74.90;;;;;;6219499;23;20007;-81
2020/12/27 14:16:33;;;;;;;2.85;1.55;;;1.30;72.30;;;;;;6218910;23;20011;-80
2020/12/27 14:18:59;;;;;;;3.20;2.08;;;1.30;73.10;;;;;;6192474;23;20004;-81
2020/12/27 14:21:26;;;;;;;4.43;1.92;;;1.30;76.00;;;;;;6218477;23;20376;-80
2020/12/27 14:23:52;;;;;;;4.57;2.80;;;1.20;73.60;;;;;;6218845;23;20382;-81
2020/12/27 14:26:19;;;;;;;3.55;2.13;;;1.10;73.40;;;;;;6219311;23;20027;-80
2020/12/27 14:28:46;;;;;;;3.78;1.75;;;1.00;73.00;;;;;;6192134;23;20138;-81
2020/12/27 14:31:13;;;;;;;3.67;1.50;;;1.00;72.80;;;;;;6192575;23;20259;-79
2020/12/27 14:33:40;;;;;;;2.95;1.65;;;0.90;72.80;;;;;;6191989;23;20011;-80
2020/12/27 14:36:08;;;;;;;3.38;1.92;;;0.80;72.70;;;;;;6218601;23;20092;-81
2020/12/27 14:38:34;;;;;;;6.28;1.92;;;0.80;73.00;;;;;;6221516;23;20005;-79
2020/12/27 14:41:00;;;;;;;3.15;1.80;;;;;;;;;;6205632;23;20016;-79
2020/12/27 14:43:26;;;;;;;4.32;1.98;;;0.70;72.90;;;;;;6192117;23;20008;-81
2020/12/27 14:45:52;;;;;;;3.85;1.90;;;0.60;73.70;;;;;;6195061;23;20000;-82
2020/12/27 14:48:18;;;;;;;11.25;4.32;;;0.50;74.00;;;;;;6190982;23;20012;-79
2020/12/27 14:50:43;;;;;;;15.68;6.40;;;0.50;74.50;;;;;;6216838;23;20020;-79
2020/12/27 14:53:09;;;;;;;10.18;4.00;;;0.40;75.10;;;;;;6215480;23;20055;-79
2020/12/27 14:55:35;;;;;;;6.22;3.72;;;0.30;75.60;;;;;;6216232;23;20007;-79
2020/12/27 14:58:01;;;;;;;7.10;3.58;;;0.30;76.10;;;;;;6216923;23;20023;-80
2020/12/27 15:00:27;;;;;;;7.50;3.92;;;0.30;76.40;;;;;;6189675;23;20321;-80
2020/12/27 15:02:53;;;;;;;10.90;3.90;;;0.30;76.90;;;;;;6217087;23;20019;-79
2020/12/27 15:05:19;;;;;;;6.82;3.58;;;0.20;77.30;;;;;;6216978;23;19997;-79
2020/12/27 15:07:46;;;;;;;7.00;2.50;;;0.20;77.60;;;;;;6216204;23;20003;-80
2020/12/27 15:10:12;;;;;;;4.30;2.25;;;0.10;78.10;;;;;;6188883;23;20004;-79
2020/12/27 15:12:37;;;;;;;5.20;2.45;;;0.10;78.60;;;;;;6190517;23;20349;-79
2020/12/27 15:15:04;;;;;;;4.95;2.20;;;0.00;78.90;;;;;;6217355;23;20001;-79
2020/12/27 15:17:32;;;;;;;7.07;4.00;;;0.00;78.90;;;;;;6217248;23;19997;-79
2020/12/27 15:19:58;;;;;;;8.10;3.55;;;-0.10;79.20;;;;;;6190893;23;20027;-79
2020/12/27 15:22:28;;;;;;;6.20;2.40;;;-0.10;79.40;;;;;;6191360;23;20082;-79
2020/12/27 15:24:54;;;;;;;4.57;2.33;;;-0.20;79.60;;;;;;6190424;23;20004;-79
2020/12/27 15:27:20;;;;;;;5.43;3.05;;;-0.20;80.10;;;;;;6217179;23;20184;-79
2020/12/27 15:29:47;;;;;;;7.03;2.97;;;-0.20;80.50;;;;;;6217539;23;20051;-79
2020/12/27 15:32:12;;;;;;;5.43;3.33;;;-0.30;81.00;;;;;;6193930;23;20017;-79
2020/12/27 15:34:38;;;;;;;3.92;2.67;;;-0.30;81.40;;;;;;6191170;23;20372;-79
2020/12/27 15:37:04;;;;;;;4.78;2.67;;;-0.30;81.90;;;;;;6190578;23;20004;-80
2020/12/27 15:39:29;;;;;;;8.15;3.00;;;-0.30;82.20;;;;;;6190739;23;20012;-79
2020/12/27 15:41:55;;;;;;;7.03;3.78;;;-0.40;82.50;;;;;;6217678;23;20103;-79
2020/12/27 15:44:21;;;;;;;5.70;2.92;;;-0.40;83.20;;;;;;6217062;23;20043;-79
2020/12/27 15:46:46;;;;;;;5.80;2.95;;;-0.40;83.70;;;;;;6190018;23;20064;-79
2020/12/27 15:49:13;;;;;;;5.05;2.78;;;-0.50;83.70;;;;;;6218106;23;20155;-81
2020/12/27 15:51:39;;;;;;;6.75;2.65;;;-0.50;83.80;;;;;;6191611;23;20001;-81
2020/12/27 15:54:05;;;;;;;4.13;2.50;;;-0.50;84.10;;;;;;6218488;23;20023;-81
2020/12/27 15:56:30;;;;;;;5.25;2.78;;;-0.50;84.50;;;;;;6191246;23;20036;-81
2020/12/27 15:58:56;;;;;;;5.25;2.85;;;-0.50;84.70;;;;;;6192880;23;20008;-80
2020/12/27 16:01:22;;;;;;;6.95;2.90;;;-0.50;85.10;;;;;;6195885;23;20001;-80
2020/12/27 16:03:47;;;;;;;4.53;3.00;;;-0.60;85.00;;;;;;6204656;23;20001;-81
2020/12/27 16:06:16;;;;;;;5.57;3.03;;;-0.60;85.10;;;;;;6197409;23;20000;-81
2020/12/27 16:08:42;;;;;;;3.58;2.15;;;-0.60;85.10;;;;;;6195429;23;20011;-80
2020/12/27 16:11:08;;;;;;;7.78;2.80;;;-0.60;85.30;;;;;;6226100;23;20005;-79
2020/12/27 16:13:34;;;;;;;9.07;3.40;;;-0.70;85.30;;;;;;6197557;23;20340;-78
2020/12/27 16:16:00;;;;;;;5.68;2.65;;;-0.70;85.30;;;;;;6226209;23;20082;-79
2020/12/27 16:18:38;;;;;;;5.25;2.58;;;-0.70;85.20;;;;;;6194262;23;20020;-81